sensor_id;sensor_type;location;lat;lon;timestamp;P1;durP1;ratioP1;P2;durP2;ratioP2
33327;SDS011;19692;52.998;9.116;2023-10-09T00:00:49;6.33;;;3.80;;
33327;SDS011;19692;52.998;9.116;2023-10-09T00:03:19;6.70;;;3.50;;
33327;SDS011;19692;52.998;9.116;2023-10-09T00:05:48;8.67;;;3.87;;
33327;SDS011;19692;52.998;9.116;2023-10-09T00:08:18;6.73;;;3.37;;
33327;SDS011;19692;52.998;9.116;2023-10-09T00:10:50;4.90;;;2.97;;
33327;SDS011;19692;52.998;9.116;2023-10-09T00:13:25;10.27;;;4.47;;
33327;SDS011;19692;52.998;9.116;2023-10-09T00:16:00;7.87;;;3.90;;
33327;SDS011;19692;52.998;9.116;2023-10-09T00:18:39;6.80;;;3.20;;
33327;SDS011;19692;52.998;9.116;2023-10-09T00:21:15;6.13;;;4.20;;
33327;SDS011;19692;52.998;9.116;2023-10-09T00:23:45;7.27;;;4.10;;
33327;SDS011;19692;52.998;9.116;2023-10-09T00:26:24;9.30;;;4.27;;
33327;SDS011;19692;52.998;9.116;2023-10-09T00:28:51;6.33;;;3.47;;
33327;SDS011;19692;52.998;9.116;2023-10-09T00:31:17;6.27;;;3.47;;
33327;SDS011;19692;52.998;9.116;2023-10-09T00:33:58;8.83;;;3.63;;
33327;SDS011;19692;52.998;9.116;2023-10-09T00:36:32;6.73;;;3.60;;
33327;SDS011;19692;52.998;9.116;2023-10-09T00:39:14;4.97;;;3.33;;
33327;SDS011;19692;52.998;9.116;2023-10-09T00:41:47;7.23;;;3.90;;
33327;SDS011;19692;52.998;9.116;2023-10-09T00:44:13;11.73;;;3.90;;
33327;SDS011;19692;52.998;9.116;2023-10-09T00:46:39;7.43;;;3.53;;
33327;SDS011;19692;52.998;9.116;2023-10-09T00:49:08;9.43;;;3.60;;
33327;SDS011;19692;52.998;9.116;2023-10-09T00:51:35;8.60;;;3.80;;
33327;SDS011;19692;52.998;9.116;2023-10-09T00:54:08;7.40;;;3.30;;
33327;SDS011;19692;52.998;9.116;2023-10-09T00:56:40;6.77;;;3.37;;
33327;SDS011;19692;52.998;9.116;2023-10-09T00:59:17;8.23;;;3.93;;
33327;SDS011;19692;52.998;9.116;2023-10-09T01:01:47;6.40;;;3.73;;
33327;SDS011;19692;52.998;9.116;2023-10-09T01:04:39;5.33;;;3.40;;
33327;SDS011;19692;52.998;9.116;2023-10-09T01:07:08;6.70;;;4.00;;
33327;SDS011;19692;52.998;9.116;2023-10-09T01:09:40;5.93;;;3.50;;
33327;SDS011;19692;52.998;9.116;2023-10-09T01:12:09;7.23;;;3.30;;
33327;SDS011;19692;52.998;9.116;2023-10-09T01:14:45;9.27;;;4.00;;
33327;SDS011;19692;52.998;9.116;2023-10-09T01:17:17;7.90;;;3.70;;
33327;SDS011;19692;52.998;9.116;2023-10-09T01:19:55;11.53;;;4.10;;
33327;SDS011;19692;52.998;9.116;2023-10-09T01:22:22;5.47;;;3.80;;
33327;SDS011;19692;52.998;9.116;2023-10-09T01:24:48;10.90;;;3.80;;
33327;SDS011;19692;52.998;9.116;2023-10-09T01:27:16;10.20;;;3.93;;
33327;SDS011;19692;52.998;9.116;2023-10-09T01:29:42;10.93;;;3.90;;
33327;SDS011;19692;52.998;9.116;2023-10-09T01:32:09;5.87;;;3.47;;
33327;SDS011;19692;52.998;9.116;2023-10-09T01:34:44;7.60;;;4.10;;
33327;SDS011;19692;52.998;9.116;2023-10-09T01:37:17;6.33;;;3.60;;
33327;SDS011;19692;52.998;9.116;2023-10-09T01:39:52;7.57;;;3.63;;
33327;SDS011;19692;52.998;9.116;2023-10-09T01:42:23;8.40;;;3.80;;
33327;SDS011;19692;52.998;9.116;2023-10-09T01:44:55;8.23;;;3.90;;
33327;SDS011;19692;52.998;9.116;2023-10-09T01:47:23;5.93;;;3.93;;
33327;SDS011;19692;52.998;9.116;2023-10-09T01:49:50;8.03;;;3.90;;
33327;SDS011;19692;52.998;9.116;2023-10-09T01:52:18;6.63;;;4.00;;
33327;SDS011;19692;52.998;9.116;2023-10-09T01:54:45;5.97;;;3.70;;
33327;SDS011;19692;52.998;9.116;2023-10-09T01:57:15;6.07;;;3.70;;
33327;SDS011;19692;52.998;9.116;2023-10-09T01:59:50;8.13;;;4.30;;
33327;SDS011;19692;52.998;9.116;2023-10-09T02:02:20;5.93;;;3.70;;
33327;SDS011;19692;52.998;9.116;2023-10-09T02:04:54;7.17;;;4.03;;
33327;SDS011;19692;52.998;9.116;2023-10-09T02:07:49;5.33;;;3.93;;
33327;SDS011;19692;52.998;9.116;2023-10-09T02:10:19;9.43;;;3.80;;
33327;SDS011;19692;52.998;9.116;2023-10-09T02:12:50;6.10;;;3.57;;
33327;SDS011;19692;52.998;9.116;2023-10-09T02:15:23;5.90;;;3.50;;
33327;SDS011;19692;52.998;9.116;2023-10-09T02:18:07;6.77;;;3.70;;
33327;SDS011;19692;52.998;9.116;2023-10-09T02:20:49;7.57;;;3.83;;
33327;SDS011;19692;52.998;9.116;2023-10-09T02:23:30;15.30;;;4.43;;
33327;SDS011;19692;52.998;9.116;2023-10-09T02:26:04;7.07;;;3.47;;
33327;SDS011;19692;52.998;9.116;2023-10-09T02:28:34;9.13;;;4.37;;
33327;SDS011;19692;52.998;9.116;2023-10-09T02:31:01;7.73;;;4.33;;
33327;SDS011;19692;52.998;9.116;2023-10-09T02:33:36;6.63;;;4.53;;
33327;SDS011;19692;52.998;9.116;2023-10-09T02:36:04;7.47;;;3.80;;
33327;SDS011;19692;52.998;9.116;2023-10-09T02:38:33;6.33;;;3.80;;
33327;SDS011;19692;52.998;9.116;2023-10-09T02:41:01;7.40;;;4.30;;
33327;SDS011;19692;52.998;9.116;2023-10-09T02:43:27;6.23;;;4.13;;
33327;SDS011;19692;52.998;9.116;2023-10-09T02:46:06;8.50;;;4.10;;
33327;SDS011;19692;52.998;9.116;2023-10-09T02:48:40;9.13;;;4.20;;
33327;SDS011;19692;52.998;9.116;2023-10-09T02:51:10;7.90;;;4.33;;
33327;SDS011;19692;52.998;9.116;2023-10-09T02:53:46;8.00;;;3.90;;
33327;SDS011;19692;52.998;9.116;2023-10-09T02:56:14;8.33;;;4.53;;
33327;SDS011;19692;52.998;9.116;2023-10-09T02:58:48;10.10;;;4.60;;
33327;SDS011;19692;52.998;9.116;2023-10-09T03:01:17;7.33;;;4.53;;
33327;SDS011;19692;52.998;9.116;2023-10-09T03:03:43;8.10;;;4.80;;
33327;SDS011;19692;52.998;9.116;2023-10-09T03:06:10;6.90;;;5.33;;
33327;SDS011;19692;52.998;9.116;2023-10-09T03:08:37;7.40;;;4.60;;
33327;SDS011;19692;52.998;9.116;2023-10-09T03:11:06;6.80;;;4.70;;
33327;SDS011;19692;52.998;9.116;2023-10-09T03:13:39;6.67;;;4.57;;
33327;SDS011;19692;52.998;9.116;2023-10-09T03:16:08;7.60;;;4.50;;
33327;SDS011;19692;52.998;9.116;2023-10-09T03:18:51;7.00;;;4.40;;
33327;SDS011;19692;52.998;9.116;2023-10-09T03:21:18;8.10;;;4.37;;
33327;SDS011;19692;52.998;9.116;2023-10-09T03:23:48;10.27;;;4.20;;
33327;SDS011;19692;52.998;9.116;2023-10-09T03:26:17;10.13;;;4.50;;
33327;SDS011;19692;52.998;9.116;2023-10-09T03:28:47;5.63;;;4.23;;
33327;SDS011;19692;52.998;9.116;2023-10-09T03:31:14;6.73;;;4.10;;
33327;SDS011;19692;52.998;9.116;2023-10-09T03:33:40;7.40;;;4.50;;
33327;SDS011;19692;52.998;9.116;2023-10-09T03:36:07;7.90;;;4.70;;
33327;SDS011;19692;52.998;9.116;2023-10-09T03:38:38;7.50;;;4.77;;
33327;SDS011;19692;52.998;9.116;2023-10-09T03:41:04;9.17;;;4.27;;
33327;SDS011;19692;52.998;9.116;2023-10-09T03:43:34;4.77;;;4.30;;
33327;SDS011;19692;52.998;9.116;2023-10-09T03:46:09;9.70;;;4.73;;
33327;SDS011;19692;52.998;9.116;2023-10-09T03:48:51;5.50;;;4.17;;
33327;SDS011;19692;52.998;9.116;2023-10-09T03:51:17;6.50;;;4.50;;
33327;SDS011;19692;52.998;9.116;2023-10-09T03:53:47;8.63;;;5.00;;
33327;SDS011;19692;52.998;9.116;2023-10-09T03:56:13;6.30;;;4.53;;
33327;SDS011;19692;52.998;9.116;2023-10-09T03:58:41;6.00;;;4.23;;
33327;SDS011;19692;52.998;9.116;2023-10-09T04:01:10;6.43;;;4.13;;
33327;SDS011;19692;52.998;9.116;2023-10-09T04:04:02;7.63;;;4.40;;
33327;SDS011;19692;52.998;9.116;2023-10-09T04:06:31;7.50;;;4.80;;
33327;SDS011;19692;52.998;9.116;2023-10-09T04:08:58;9.50;;;4.60;;
33327;SDS011;19692;52.998;9.116;2023-10-09T04:11:48;7.80;;;4.70;;
33327;SDS011;19692;52.998;9.116;2023-10-09T04:14:50;6.00;;;4.70;;
33327;SDS011;19692;52.998;9.116;2023-10-09T04:17:29;7.57;;;4.63;;
33327;SDS011;19692;52.998;9.116;2023-10-09T04:19:58;9.43;;;5.07;;
33327;SDS011;19692;52.998;9.116;2023-10-09T04:22:59;9.97;;;6.00;;
33327;SDS011;19692;52.998;9.116;2023-10-09T04:25:30;8.93;;;5.47;;
33327;SDS011;19692;52.998;9.116;2023-10-09T04:28:06;8.43;;;5.33;;
33327;SDS011;19692;52.998;9.116;2023-10-09T04:30:41;13.10;;;5.63;;
33327;SDS011;19692;52.998;9.116;2023-10-09T04:33:12;6.20;;;5.60;;
33327;SDS011;19692;52.998;9.116;2023-10-09T04:35:54;8.93;;;5.80;;
33327;SDS011;19692;52.998;9.116;2023-10-09T04:38:44;8.23;;;6.10;;
33327;SDS011;19692;52.998;9.116;2023-10-09T04:41:29;9.83;;;5.43;;
33327;SDS011;19692;52.998;9.116;2023-10-09T04:44:16;8.83;;;5.77;;
33327;SDS011;19692;52.998;9.116;2023-10-09T04:46:50;10.80;;;6.00;;
33327;SDS011;19692;52.998;9.116;2023-10-09T04:49:36;12.90;;;7.10;;
33327;SDS011;19692;52.998;9.116;2023-10-09T04:52:14;15.23;;;7.40;;
33327;SDS011;19692;52.998;9.116;2023-10-09T04:55:04;8.98;;;6.57;;
33327;SDS011;19692;52.998;9.116;2023-10-09T04:57:33;9.93;;;6.33;;
33327;SDS011;19692;52.998;9.116;2023-10-09T05:00:12;8.50;;;6.10;;
33327;SDS011;19692;52.998;9.116;2023-10-09T05:02:54;7.87;;;6.00;;
33327;SDS011;19692;52.998;9.116;2023-10-09T05:05:23;7.37;;;5.67;;
33327;SDS011;19692;52.998;9.116;2023-10-09T05:08:05;7.37;;;5.03;;
33327;SDS011;19692;52.998;9.116;2023-10-09T05:10:45;8.77;;;6.40;;
33327;SDS011;19692;52.998;9.116;2023-10-09T05:13:27;9.57;;;6.73;;
33327;SDS011;19692;52.998;9.116;2023-10-09T05:16:05;13.30;;;7.47;;
33327;SDS011;19692;52.998;9.116;2023-10-09T05:18:54;12.70;;;7.63;;
33327;SDS011;19692;52.998;9.116;2023-10-09T05:21:31;9.93;;;6.77;;
33327;SDS011;19692;52.998;9.116;2023-10-09T05:24:02;11.60;;;7.07;;
33327;SDS011;19692;52.998;9.116;2023-10-09T05:26:42;9.60;;;6.80;;
33327;SDS011;19692;52.998;9.116;2023-10-09T05:29:15;9.13;;;6.47;;
33327;SDS011;19692;52.998;9.116;2023-10-09T05:31:53;12.33;;;6.53;;
33327;SDS011;19692;52.998;9.116;2023-10-09T05:34:28;9.33;;;6.57;;
33327;SDS011;19692;52.998;9.116;2023-10-09T05:37:36;8.67;;;5.87;;
33327;SDS011;19692;52.998;9.116;2023-10-09T05:40:08;11.37;;;7.13;;
33327;SDS011;19692;52.998;9.116;2023-10-09T05:42:43;11.10;;;6.97;;
33327;SDS011;19692;52.998;9.116;2023-10-09T05:45:17;11.00;;;7.87;;
33327;SDS011;19692;52.998;9.116;2023-10-09T05:47:47;15.83;;;7.83;;
33327;SDS011;19692;52.998;9.116;2023-10-09T05:50:29;14.83;;;7.80;;
33327;SDS011;19692;52.998;9.116;2023-10-09T05:52:58;13.20;;;7.93;;
33327;SDS011;19692;52.998;9.116;2023-10-09T05:55:26;12.90;;;8.33;;
33327;SDS011;19692;52.998;9.116;2023-10-09T05:58:11;13.13;;;8.63;;
33327;SDS011;19692;52.998;9.116;2023-10-09T06:00:56;16.03;;;10.00;;
33327;SDS011;19692;52.998;9.116;2023-10-09T06:03:40;15.93;;;9.80;;
33327;SDS011;19692;52.998;9.116;2023-10-09T06:06:19;17.13;;;10.00;;
33327;SDS011;19692;52.998;9.116;2023-10-09T06:09:04;15.47;;;10.23;;
33327;SDS011;19692;52.998;9.116;2023-10-09T06:14:18;18.50;;;10.90;;
33327;SDS011;19692;52.998;9.116;2023-10-09T06:16:54;18.27;;;11.93;;
33327;SDS011;19692;52.998;9.116;2023-10-09T06:19:23;20.90;;;12.20;;
33327;SDS011;19692;52.998;9.116;2023-10-09T06:21:57;25.50;;;12.50;;
33327;SDS011;19692;52.998;9.116;2023-10-09T06:24:43;23.37;;;14.60;;
33327;SDS011;19692;52.998;9.116;2023-10-09T06:27:17;28.13;;;16.20;;
33327;SDS011;19692;52.998;9.116;2023-10-09T06:29:55;25.50;;;15.87;;
33327;SDS011;19692;52.998;9.116;2023-10-09T06:32:40;29.23;;;17.30;;
33327;SDS011;19692;52.998;9.116;2023-10-09T06:35:22;31.00;;;18.00;;
33327;SDS011;19692;52.998;9.116;2023-10-09T06:37:58;35.20;;;18.93;;
33327;SDS011;19692;52.998;9.116;2023-10-09T06:40:35;36.67;;;19.33;;
33327;SDS011;19692;52.998;9.116;2023-10-09T06:43:20;37.10;;;20.47;;
33327;SDS011;19692;52.998;9.116;2023-10-09T06:45:50;43.07;;;21.87;;
33327;SDS011;19692;52.998;9.116;2023-10-09T06:48:44;45.00;;;24.27;;
33327;SDS011;19692;52.998;9.116;2023-10-09T06:51:11;48.57;;;27.13;;
33327;SDS011;19692;52.998;9.116;2023-10-09T06:53:53;55.17;;;26.37;;
33327;SDS011;19692;52.998;9.116;2023-10-09T06:56:21;51.03;;;27.47;;
33327;SDS011;19692;52.998;9.116;2023-10-09T06:58:54;52.63;;;29.43;;
33327;SDS011;19692;52.998;9.116;2023-10-09T07:01:26;59.17;;;30.33;;
33327;SDS011;19692;52.998;9.116;2023-10-09T07:03:52;60.00;;;30.77;;
33327;SDS011;19692;52.998;9.116;2023-10-09T07:06:19;54.27;;;30.73;;
33327;SDS011;19692;52.998;9.116;2023-10-09T07:08:55;55.60;;;30.40;;
33327;SDS011;19692;52.998;9.116;2023-10-09T07:11:34;53.43;;;31.37;;
33327;SDS011;19692;52.998;9.116;2023-10-09T07:14:08;62.07;;;32.70;;
33327;SDS011;19692;52.998;9.116;2023-10-09T07:19:40;65.00;;;32.90;;
33327;SDS011;19692;52.998;9.116;2023-10-09T07:22:13;63.10;;;33.63;;
33327;SDS011;19692;52.998;9.116;2023-10-09T07:24:49;64.27;;;34.27;;
33327;SDS011;19692;52.998;9.116;2023-10-09T07:27:28;59.13;;;33.73;;
33327;SDS011;19692;52.998;9.116;2023-10-09T07:30:09;63.67;;;34.33;;
33327;SDS011;19692;52.998;9.116;2023-10-09T07:35:35;60.37;;;33.83;;
33327;SDS011;19692;52.998;9.116;2023-10-09T07:38:18;63.67;;;34.23;;
33327;SDS011;19692;52.998;9.116;2023-10-09T07:40:53;62.07;;;34.40;;
33327;SDS011;19692;52.998;9.116;2023-10-09T07:43:25;61.93;;;35.03;;
33327;SDS011;19692;52.998;9.116;2023-10-09T07:46:14;65.20;;;36.53;;
33327;SDS011;19692;52.998;9.116;2023-10-09T07:49:04;66.83;;;34.97;;
33327;SDS011;19692;52.998;9.116;2023-10-09T07:51:34;59.90;;;35.17;;
33327;SDS011;19692;52.998;9.116;2023-10-09T07:54:11;62.67;;;35.23;;
33327;SDS011;19692;52.998;9.116;2023-10-09T07:56:40;63.40;;;35.80;;
33327;SDS011;19692;52.998;9.116;2023-10-09T07:59:10;59.00;;;34.23;;
33327;SDS011;19692;52.998;9.116;2023-10-09T08:01:43;59.67;;;33.83;;
33327;SDS011;19692;52.998;9.116;2023-10-09T08:04:21;57.30;;;35.30;;
33327;SDS011;19692;52.998;9.116;2023-10-09T08:07:03;62.47;;;34.97;;
33327;SDS011;19692;52.998;9.116;2023-10-09T08:09:33;62.77;;;36.00;;
33327;SDS011;19692;52.998;9.116;2023-10-09T08:12:34;60.70;;;36.00;;
33327;SDS011;19692;52.998;9.116;2023-10-09T08:15:15;62.13;;;36.13;;
33327;SDS011;19692;52.998;9.116;2023-10-09T08:20:38;63.33;;;35.00;;
33327;SDS011;19692;52.998;9.116;2023-10-09T08:23:23;60.27;;;34.73;;
33327;SDS011;19692;52.998;9.116;2023-10-09T08:26:04;58.37;;;33.60;;
33327;SDS011;19692;52.998;9.116;2023-10-09T08:28:39;59.53;;;34.97;;
33327;SDS011;19692;52.998;9.116;2023-10-09T08:31:08;54.83;;;33.73;;
33327;SDS011;19692;52.998;9.116;2023-10-09T08:33:47;57.37;;;34.93;;
33327;SDS011;19692;52.998;9.116;2023-10-09T08:36:26;59.40;;;37.13;;
33327;SDS011;19692;52.998;9.116;2023-10-09T08:38:56;61.83;;;35.40;;
33327;SDS011;19692;52.998;9.116;2023-10-09T08:41:39;56.40;;;34.07;;
33327;SDS011;19692;52.998;9.116;2023-10-09T08:44:06;54.20;;;33.33;;
33327;SDS011;19692;52.998;9.116;2023-10-09T08:46:32;56.30;;;32.40;;
33327;SDS011;19692;52.998;9.116;2023-10-09T08:48:59;56.90;;;34.70;;
33327;SDS011;19692;52.998;9.116;2023-10-09T08:51:25;57.83;;;33.73;;
33327;SDS011;19692;52.998;9.116;2023-10-09T08:53:53;55.77;;;33.00;;
33327;SDS011;19692;52.998;9.116;2023-10-09T08:56:20;54.40;;;33.50;;
33327;SDS011;19692;52.998;9.116;2023-10-09T08:58:50;52.60;;;33.13;;
33327;SDS011;19692;52.998;9.116;2023-10-09T09:01:19;56.77;;;32.97;;
33327;SDS011;19692;52.998;9.116;2023-10-09T09:03:47;56.37;;;32.23;;
33327;SDS011;19692;52.998;9.116;2023-10-09T09:06:15;52.00;;;32.30;;
33327;SDS011;19692;52.998;9.116;2023-10-09T09:08:44;58.83;;;32.60;;
33327;SDS011;19692;52.998;9.116;2023-10-09T09:11:12;53.63;;;32.73;;
33327;SDS011;19692;52.998;9.116;2023-10-09T09:13:46;56.30;;;33.13;;
33327;SDS011;19692;52.998;9.116;2023-10-09T09:16:20;59.40;;;34.47;;
33327;SDS011;19692;52.998;9.116;2023-10-09T09:19:13;53.97;;;31.97;;
33327;SDS011;19692;52.998;9.116;2023-10-09T09:21:53;54.27;;;33.47;;
33327;SDS011;19692;52.998;9.116;2023-10-09T09:24:36;51.53;;;30.67;;
33327;SDS011;19692;52.998;9.116;2023-10-09T09:27:03;51.03;;;31.83;;
33327;SDS011;19692;52.998;9.116;2023-10-09T09:29:43;50.50;;;31.67;;
33327;SDS011;19692;52.998;9.116;2023-10-09T09:32:31;51.10;;;31.03;;
33327;SDS011;19692;52.998;9.116;2023-10-09T09:35:03;55.90;;;32.73;;
33327;SDS011;19692;52.998;9.116;2023-10-09T09:37:31;49.40;;;31.20;;
33327;SDS011;19692;52.998;9.116;2023-10-09T09:40:07;52.20;;;30.77;;
33327;SDS011;19692;52.998;9.116;2023-10-09T09:42:52;45.43;;;29.63;;
33327;SDS011;19692;52.998;9.116;2023-10-09T09:45:39;49.27;;;29.93;;
33327;SDS011;19692;52.998;9.116;2023-10-09T09:48:11;53.30;;;31.17;;
33327;SDS011;19692;52.998;9.116;2023-10-09T09:50:41;49.50;;;29.60;;
33327;SDS011;19692;52.998;9.116;2023-10-09T09:53:13;51.30;;;30.67;;
33327;SDS011;19692;52.998;9.116;2023-10-09T09:55:50;52.77;;;30.10;;
33327;SDS011;19692;52.998;9.116;2023-10-09T09:58:22;48.37;;;27.67;;
33327;SDS011;19692;52.998;9.116;2023-10-09T10:01:07;52.87;;;29.60;;
33327;SDS011;19692;52.998;9.116;2023-10-09T10:04:06;40.47;;;27.77;;
33327;SDS011;19692;52.998;9.116;2023-10-09T10:06:38;41.87;;;26.23;;
33327;SDS011;19692;52.998;9.116;2023-10-09T10:09:33;46.07;;;27.70;;
33327;SDS011;19692;52.998;9.116;2023-10-09T10:12:06;39.63;;;26.17;;
33327;SDS011;19692;52.998;9.116;2023-10-09T10:14:51;46.03;;;27.40;;
33327;SDS011;19692;52.998;9.116;2023-10-09T10:20:24;40.80;;;26.40;;
33327;SDS011;19692;52.998;9.116;2023-10-09T10:22:51;36.80;;;25.30;;
33327;SDS011;19692;52.998;9.116;2023-10-09T10:25:42;43.03;;;27.23;;
33327;SDS011;19692;52.998;9.116;2023-10-09T10:31:07;41.27;;;26.23;;
33327;SDS011;19692;52.998;9.116;2023-10-09T10:36:19;42.47;;;27.03;;
33327;SDS011;19692;52.998;9.116;2023-10-09T10:39:06;45.27;;;26.47;;
33327;SDS011;19692;52.998;9.116;2023-10-09T10:41:36;40.90;;;27.30;;
33327;SDS011;19692;52.998;9.116;2023-10-09T10:44:16;35.13;;;24.40;;
33327;SDS011;19692;52.998;9.116;2023-10-09T10:47:07;44.93;;;27.50;;
33327;SDS011;19692;52.998;9.116;2023-10-09T10:49:52;40.93;;;27.00;;
33327;SDS011;19692;52.998;9.116;2023-10-09T10:52:23;38.53;;;26.50;;
33327;SDS011;19692;52.998;9.116;2023-10-09T10:55:13;37.13;;;26.80;;
33327;SDS011;19692;52.998;9.116;2023-10-09T10:57:44;41.30;;;26.23;;
33327;SDS011;19692;52.998;9.116;2023-10-09T11:00:35;39.40;;;26.13;;
33327;SDS011;19692;52.998;9.116;2023-10-09T11:03:21;41.93;;;26.97;;
33327;SDS011;19692;52.998;9.116;2023-10-09T11:06:02;46.57;;;27.83;;
33327;SDS011;19692;52.998;9.116;2023-10-09T11:08:47;40.90;;;27.13;;
33327;SDS011;19692;52.998;9.116;2023-10-09T11:11:33;42.13;;;27.13;;
33327;SDS011;19692;52.998;9.116;2023-10-09T11:14:10;36.37;;;26.13;;
33327;SDS011;19692;52.998;9.116;2023-10-09T11:16:56;40.07;;;27.07;;
33327;SDS011;19692;52.998;9.116;2023-10-09T11:19:28;40.67;;;27.60;;
33327;SDS011;19692;52.998;9.116;2023-10-09T11:21:56;40.57;;;29.30;;
33327;SDS011;19692;52.998;9.116;2023-10-09T11:24:45;39.63;;;26.87;;
33327;SDS011;19692;52.998;9.116;2023-10-09T11:27:33;38.60;;;27.20;;
33327;SDS011;19692;52.998;9.116;2023-10-09T11:30:04;36.00;;;26.53;;
33327;SDS011;19692;52.998;9.116;2023-10-09T11:32:35;34.93;;;26.63;;
33327;SDS011;19692;52.998;9.116;2023-10-09T11:35:13;37.10;;;26.97;;
33327;SDS011;19692;52.998;9.116;2023-10-09T11:37:56;35.13;;;24.43;;
33327;SDS011;19692;52.998;9.116;2023-10-09T11:40:32;34.10;;;24.70;;
33327;SDS011;19692;52.998;9.116;2023-10-09T11:43:14;32.13;;;25.00;;
33327;SDS011;19692;52.998;9.116;2023-10-09T11:45:40;31.47;;;24.10;;
33327;SDS011;19692;52.998;9.116;2023-10-09T11:48:19;29.13;;;23.50;;
33327;SDS011;19692;52.998;9.116;2023-10-09T11:51:12;33.63;;;24.07;;
33327;SDS011;19692;52.998;9.116;2023-10-09T11:53:44;30.23;;;22.47;;
33327;SDS011;19692;52.998;9.116;2023-10-09T11:56:14;28.33;;;22.07;;
33327;SDS011;19692;52.998;9.116;2023-10-09T11:58:46;28.30;;;21.77;;
33327;SDS011;19692;52.998;9.116;2023-10-09T12:01:15;25.97;;;18.97;;
33327;SDS011;19692;52.998;9.116;2023-10-09T12:03:48;22.40;;;18.50;;
33327;SDS011;19692;52.998;9.116;2023-10-09T12:06:16;23.30;;;17.60;;
33327;SDS011;19692;52.998;9.116;2023-10-09T12:08:47;24.90;;;18.40;;
33327;SDS011;19692;52.998;9.116;2023-10-09T12:11:17;22.73;;;15.87;;
33327;SDS011;19692;52.998;9.116;2023-10-09T12:13:53;20.47;;;15.27;;
33327;SDS011;19692;52.998;9.116;2023-10-09T12:16:25;20.40;;;14.73;;
33327;SDS011;19692;52.998;9.116;2023-10-09T12:18:56;17.90;;;13.20;;
33327;SDS011;19692;52.998;9.116;2023-10-09T12:21:22;16.77;;;13.00;;
33327;SDS011;19692;52.998;9.116;2023-10-09T12:23:49;17.57;;;12.03;;
33327;SDS011;19692;52.998;9.116;2023-10-09T12:26:14;17.47;;;11.83;;
33327;SDS011;19692;52.998;9.116;2023-10-09T12:28:41;14.33;;;9.97;;
33327;SDS011;19692;52.998;9.116;2023-10-09T12:31:11;17.03;;;11.53;;
33327;SDS011;19692;52.998;9.116;2023-10-09T12:33:40;15.00;;;10.93;;
33327;SDS011;19692;52.998;9.116;2023-10-09T12:36:11;13.33;;;10.23;;
33327;SDS011;19692;52.998;9.116;2023-10-09T12:38:44;14.17;;;9.83;;
33327;SDS011;19692;52.998;9.116;2023-10-09T12:41:23;14.83;;;9.63;;
33327;SDS011;19692;52.998;9.116;2023-10-09T12:43:53;15.07;;;10.17;;
33327;SDS011;19692;52.998;9.116;2023-10-09T12:46:20;12.37;;;9.87;;
33327;SDS011;19692;52.998;9.116;2023-10-09T12:48:48;15.23;;;9.90;;
33327;SDS011;19692;52.998;9.116;2023-10-09T12:51:15;13.13;;;8.50;;
33327;SDS011;19692;52.998;9.116;2023-10-09T12:53:44;16.83;;;9.67;;
33327;SDS011;19692;52.998;9.116;2023-10-09T12:56:13;14.17;;;9.57;;
33327;SDS011;19692;52.998;9.116;2023-10-09T12:58:43;15.47;;;9.73;;
33327;SDS011;19692;52.998;9.116;2023-10-09T13:01:20;14.17;;;9.73;;
33327;SDS011;19692;52.998;9.116;2023-10-09T13:03:46;15.00;;;10.20;;
33327;SDS011;19692;52.998;9.116;2023-10-09T13:06:14;19.43;;;9.80;;
33327;SDS011;19692;52.998;9.116;2023-10-09T13:08:40;12.47;;;9.87;;
33327;SDS011;19692;52.998;9.116;2023-10-09T13:11:08;13.77;;;9.43;;
33327;SDS011;19692;52.998;9.116;2023-10-09T13:13:42;12.93;;;7.67;;
33327;SDS011;19692;52.998;9.116;2023-10-09T13:18:38;12.33;;;7.10;;
33327;SDS011;19692;52.998;9.116;2023-10-09T13:21:15;13.77;;;7.27;;
33327;SDS011;19692;52.998;9.116;2023-10-09T13:23:52;13.20;;;6.77;;
33327;SDS011;19692;52.998;9.116;2023-10-09T13:26:22;14.43;;;6.40;;
33327;SDS011;19692;52.998;9.116;2023-10-09T13:29:00;11.00;;;5.73;;
33327;SDS011;19692;52.998;9.116;2023-10-09T13:31:28;9.43;;;5.50;;
33327;SDS011;19692;52.998;9.116;2023-10-09T13:33:58;12.77;;;5.83;;
33327;SDS011;19692;52.998;9.116;2023-10-09T13:36:26;11.20;;;5.20;;
33327;SDS011;19692;52.998;9.116;2023-10-09T13:38:52;11.30;;;6.03;;
33327;SDS011;19692;52.998;9.116;2023-10-09T13:41:47;9.03;;;5.70;;
33327;SDS011;19692;52.998;9.116;2023-10-09T13:44:15;10.17;;;5.20;;
33327;SDS011;19692;52.998;9.116;2023-10-09T13:46:41;8.70;;;5.50;;
33327;SDS011;19692;52.998;9.116;2023-10-09T13:49:07;12.30;;;5.60;;
33327;SDS011;19692;52.998;9.116;2023-10-09T13:51:40;11.00;;;4.57;;
33327;SDS011;19692;52.998;9.116;2023-10-09T13:54:10;8.33;;;4.20;;
33327;SDS011;19692;52.998;9.116;2023-10-09T13:56:46;8.03;;;4.10;;
33327;SDS011;19692;52.998;9.116;2023-10-09T13:59:17;6.40;;;4.40;;
33327;SDS011;19692;52.998;9.116;2023-10-09T14:01:54;8.50;;;4.60;;
33327;SDS011;19692;52.998;9.116;2023-10-09T14:04:20;9.67;;;4.67;;
33327;SDS011;19692;52.998;9.116;2023-10-09T14:06:48;7.70;;;4.13;;
33327;SDS011;19692;52.998;9.116;2023-10-09T14:09:24;8.87;;;4.50;;
33327;SDS011;19692;52.998;9.116;2023-10-09T14:12:03;11.53;;;4.60;;
33327;SDS011;19692;52.998;9.116;2023-10-09T14:14:42;8.07;;;4.23;;
33327;SDS011;19692;52.998;9.116;2023-10-09T14:17:13;8.40;;;4.90;;
33327;SDS011;19692;52.998;9.116;2023-10-09T14:19:43;8.43;;;4.40;;
33327;SDS011;19692;52.998;9.116;2023-10-09T14:22:34;7.87;;;4.90;;
33327;SDS011;19692;52.998;9.116;2023-10-09T14:25:03;9.80;;;4.63;;
33327;SDS011;19692;52.998;9.116;2023-10-09T14:27:38;10.90;;;5.10;;
33327;SDS011;19692;52.998;9.116;2023-10-09T14:30:03;12.03;;;5.30;;
33327;SDS011;19692;52.998;9.116;2023-10-09T14:32:37;10.23;;;5.00;;
33327;SDS011;19692;52.998;9.116;2023-10-09T14:35:12;11.47;;;5.10;;
33327;SDS011;19692;52.998;9.116;2023-10-09T14:37:41;6.00;;;3.90;;
33327;SDS011;19692;52.998;9.116;2023-10-09T14:40:07;9.97;;;4.40;;
33327;SDS011;19692;52.998;9.116;2023-10-09T14:42:45;9.13;;;4.23;;
33327;SDS011;19692;52.998;9.116;2023-10-09T14:45:11;10.47;;;4.20;;
33327;SDS011;19692;52.998;9.116;2023-10-09T14:47:43;8.53;;;4.20;;
33327;SDS011;19692;52.998;9.116;2023-10-09T14:50:11;9.97;;;4.20;;
33327;SDS011;19692;52.998;9.116;2023-10-09T14:52:38;10.33;;;5.00;;
33327;SDS011;19692;52.998;9.116;2023-10-09T14:55:05;7.83;;;4.37;;
33327;SDS011;19692;52.998;9.116;2023-10-09T14:57:32;7.67;;;4.67;;
33327;SDS011;19692;52.998;9.116;2023-10-09T14:59:59;10.20;;;5.03;;
33327;SDS011;19692;52.998;9.116;2023-10-09T15:02:26;12.63;;;6.10;;
33327;SDS011;19692;52.998;9.116;2023-10-09T15:04:52;11.93;;;6.10;;
33327;SDS011;19692;52.998;9.116;2023-10-09T15:07:18;13.20;;;5.37;;
33327;SDS011;19692;52.998;9.116;2023-10-09T15:09:46;8.27;;;4.90;;
33327;SDS011;19692;52.998;9.116;2023-10-09T15:12:12;11.43;;;5.40;;
33327;SDS011;19692;52.998;9.116;2023-10-09T15:14:37;14.17;;;9.33;;
33327;SDS011;19692;52.998;9.116;2023-10-09T15:17:04;12.07;;;4.83;;
33327;SDS011;19692;52.998;9.116;2023-10-09T15:19:32;9.53;;;4.50;;
33327;SDS011;19692;52.998;9.116;2023-10-09T15:21:58;8.43;;;4.73;;
33327;SDS011;19692;52.998;9.116;2023-10-09T15:24:24;9.40;;;4.73;;
33327;SDS011;19692;52.998;9.116;2023-10-09T15:26:52;9.73;;;4.50;;
33327;SDS011;19692;52.998;9.116;2023-10-09T15:29:22;10.70;;;4.30;;
33327;SDS011;19692;52.998;9.116;2023-10-09T15:31:56;9.40;;;4.30;;
33327;SDS011;19692;52.998;9.116;2023-10-09T15:34:29;9.57;;;4.30;;
33327;SDS011;19692;52.998;9.116;2023-10-09T15:37:03;8.90;;;4.07;;